Sunday, December 17, 2017, 2:37 PM EST
Back to Local

KELM, Elmira County Airport

Location: Horseheads, NY, United States Lat: 42.167
Local Time: 2:37 PM EST (19:37 GMT) Lon: -76.9
Time Zone: US/Eastern Elev: 954 ft

Show me the last for .
Show Decoded

2017-12-17 13:53 METAR KELM 171853Z 07005KT 10SM CLR M02/M07 A3019 RMK AO2 SLP235 T10221072 =
2017-12-17 13:05 METAR KELM 171805Z 08004KT 10SM FEW016 SCT022 OVC050 M03/M08 A3019 RMK AO2
                 T10281078 =
2017-12-17 12:53 METAR KELM 171753Z 06004KT 10SM BKN019 OVC050 M03/M08 A3020 RMK AO2 SLP239
                 T10281078 11028 21044 58021 =
2017-12-17 11:53 METAR KELM 171653Z 09004KT 10SM OVC015 M03/M08 A3023 RMK AO2 SLP251 T10281078 =
2017-12-17 10:53 METAR KELM 171553Z 00000KT 10SM OVC015 M03/M08 A3026 RMK AO2 SLP261 T10331083 =
2017-12-17 09:53 METAR KELM 171453Z 03004KT 10SM OVC017 M04/M09 A3026 RMK AO2 SLP262 T10391094
                 51007 =
2017-12-17 08:53 METAR KELM 171353Z 02003KT 10SM OVC018 M04/M09 A3026 RMK AO2 SLP261 T10441089 =
2017-12-17 07:53 METAR KELM 171253Z 00000KT 10SM OVC018 M04/M09 A3025 RMK AO2 SLP257 T10441089 =
2017-12-17 06:53 METAR KELM 171153Z 02003KT 10SM OVC019 M04/M08 A3024 RMK AO2 SLP254 70001
                 T10441083 11039 21044 53005 =
2017-12-17 06:16 METAR KELM 171116Z 02003KT 3SM HZ OVC019 M04/M09 A3023 RMK AO2 T10441089 =
2017-12-17 06:06 METAR KELM 171106Z 03003KT 1 3/4SM HZ OVC019 M04/M09 A3022 RMK AO2 VIS 3/4V5
                 T10441089 =
2017-12-17 05:53 METAR KELM 171053Z 04003KT 10SM OVC019 M04/M08 A3021 RMK AO2 SLP244 T10441083 =
2017-12-17 04:53 METAR KELM 170953Z AUTO 06005KT 10SM OVC018 M04/M07 A3021 RMK AO2 SLP242
                 T10441072 =
2017-12-17 03:53 METAR KELM 170853Z AUTO 00000KT 10SM OVC018 M04/M07 A3023 RMK AO2 SLP249
                 T10441072 53018 =
2017-12-17 02:53 METAR KELM 170753Z AUTO 00000KT 10SM OVC018 M04/M07 A3021 RMK AO2 SLP243
                 T10441067 =
2017-12-17 01:53 METAR KELM 170653Z AUTO 00000KT 10SM OVC018 M04/M07 A3019 RMK AO2 SLP237
                 T10441072 =
2017-12-17 00:53 METAR KELM 170553Z AUTO 00000KT 10SM OVC018 M04/M07 A3017 RMK AO2 SLP231
                 T10391072 11028 21044 50002 =
2017-12-16 23:53 METAR KELM 170453Z AUTO 00000KT 10SM OVC018 M04/M07 A3018 RMK AO2 SLP233
                 T10391072 410171056 =
2017-12-16 22:53 METAR KELM 170353Z AUTO 06004KT 10SM OVC018 M04/M07 A3017 RMK AO2 SLP229
                 T10391072 =
2017-12-16 21:53 METAR KELM 170253Z AUTO 04004KT 10SM OVC019 M04/M08 A3017 RMK AO2 SLP228
                 T10391078 51017 =
2017-12-16 20:53 METAR KELM 170153Z AUTO 00000KT 10SM OVC020 M04/M07 A3016 RMK AO2 SLP228
                 T10391072 =
2017-12-16 19:53 METAR KELM 170053Z AUTO 03007KT 10SM BKN019 OVC028 M04/M07 A3014 RMK AO2 SLP220
                 T10391072 =
2017-12-16 19:34 METAR KELM 170034Z AUTO 04007KT 10SM BKN019 OVC030 M04/M07 A3014 RMK AO2
                 T10391067 =
2017-12-16 18:53 METAR KELM 162353Z AUTO 04007KT 10SM OVC033 M03/M06 A3011 RMK AO2 SLP211 60000
                 T10281061 11017 21028 53024 =
2017-12-16 17:53 METAR KELM 162253Z VRB04KT 10SM OVC046 M03/M06 A3008 RMK AO2 SNE35 SLP198 P0000
                 T10281056 =
2017-12-16 16:53 METAR KELM 162153Z VRB03KT 3SM -SN OVC045 M02/M05 A3004 RMK AO2 SLP185 P0000
                 T10221050 =
2017-12-16 16:50 METAR KELM 162150Z 01004KT 3SM -SN BR FEW027 OVC045 M02/M04 A3004 RMK AO2 P0000
                 =
2017-12-16 16:40 METAR KELM 162140Z 00000KT 2 1/2SM -SN BR FEW025 SCT034 OVC045 M02/M04 A3004 RMK
                 AO2 P0000 T10221044 =
2017-12-16 16:30 METAR KELM 162130Z 33004KT 2SM -SN BR FEW016 BKN026 OVC045 M02/M04 A3003 RMK AO2
                 P0000 T10221044 =
2017-12-16 15:53 METAR KELM 162053Z 09006KT 1 1/2SM -SN BR BKN020 BKN025 OVC043 M02/M04 A3001 RMK
                 AO2 SLP174 P0000 60000 T10221039 53019 =
2017-12-16 15:43 METAR KELM 162043Z 10005KT 1 3/4SM -SN BR FEW014 BKN024 OVC043 M02/M04 A3000 RMK
                 AO2 P0000 T10221039 =
2017-12-16 15:08 METAR KELM 162008Z 10005KT 2SM -SN BR FEW020 SCT025 OVC041 M02/M04 A2998 RMK AO2
                 P0000 T10221039 =
2017-12-16 14:53 METAR KELM 161953Z 10006KT 1 1/4SM -SN BR BKN020 BKN024 OVC043 M02/M04 A2997 RMK
                 AO2 SLP162 P0000 T10221039 =
2017-12-16 14:51 METAR KELM 161951Z 10006KT 1 1/4SM -SN BR BKN018 BKN024 OVC045 M02/M04 A2997 RMK
                 AO2 P0000 =
2017-12-16 14:44 METAR KELM 161944Z 10005KT 2SM -SN BR BKN020 BKN026 OVC046 M02/M04 A2997 RMK AO2
                 P0000 T10221039 =

Support USWX by starting your Amazon purchase here.